sensor_id;sensor_type;location;lat;lon;timestamp;P1;durP1;ratioP1;P2;durP2;ratioP2
10511;SDS011;5304;48.604;2.096;2023-09-19T03:27:36;7.17;;;2.07;;
10511;SDS011;5304;48.604;2.096;2023-09-19T03:30:21;6.13;;;2.10;;
10511;SDS011;5304;48.604;2.096;2023-09-19T03:33:06;6.07;;;2.20;;
10511;SDS011;5304;48.604;2.096;2023-09-19T03:35:53;6.97;;;1.90;;
10511;SDS011;5304;48.604;2.096;2023-09-19T03:38:38;7.57;;;2.40;;
10511;SDS011;5304;48.604;2.096;2023-09-19T03:41:22;3.17;;;1.90;;
10511;SDS011;5304;48.604;2.096;2023-09-19T03:44:06;4.47;;;2.10;;
10511;SDS011;5304;48.604;2.096;2023-09-19T03:46:51;3.40;;;1.97;;
10511;SDS011;5304;48.604;2.096;2023-09-19T03:49:35;7.23;;;2.10;;
10511;SDS011;5304;48.604;2.096;2023-09-19T03:52:20;5.67;;;1.90;;
10511;SDS011;5304;48.604;2.096;2023-09-19T03:55:04;2.23;;;1.67;;
10511;SDS011;5304;48.604;2.096;2023-09-19T03:57:49;4.50;;;2.20;;
10511;SDS011;5304;48.604;2.096;2023-09-19T04:00:34;7.37;;;2.23;;
10511;SDS011;5304;48.604;2.096;2023-09-19T04:03:18;4.70;;;2.27;;
10511;SDS011;5304;48.604;2.096;2023-09-19T04:06:04;3.90;;;2.10;;
10511;SDS011;5304;48.604;2.096;2023-09-19T04:08:49;6.03;;;2.40;;
10511;SDS011;5304;48.604;2.096;2023-09-19T04:11:34;6.57;;;1.80;;
10511;SDS011;5304;48.604;2.096;2023-09-19T04:14:18;5.03;;;2.20;;
10511;SDS011;5304;48.604;2.096;2023-09-19T04:17:02;5.20;;;2.33;;
10511;SDS011;5304;48.604;2.096;2023-09-19T04:19:46;4.70;;;2.27;;
10511;SDS011;5304;48.604;2.096;2023-09-19T04:22:31;7.27;;;2.50;;
10511;SDS011;5304;48.604;2.096;2023-09-19T04:25:16;6.43;;;2.50;;
10511;SDS011;5304;48.604;2.096;2023-09-19T04:28:02;6.90;;;2.70;;
10511;SDS011;5304;48.604;2.096;2023-09-19T04:30:48;6.63;;;2.47;;
10511;SDS011;5304;48.604;2.096;2023-09-19T04:33:32;7.43;;;2.40;;
10511;SDS011;5304;48.604;2.096;2023-09-19T04:36:19;9.40;;;2.70;;
10511;SDS011;5304;48.604;2.096;2023-09-19T04:39:04;7.23;;;2.40;;
10511;SDS011;5304;48.604;2.096;2023-09-19T04:41:49;7.40;;;2.13;;
10511;SDS011;5304;48.604;2.096;2023-09-19T04:44:33;10.80;;;2.87;;
10511;SDS011;5304;48.604;2.096;2023-09-19T04:47:17;7.83;;;2.37;;
10511;SDS011;5304;48.604;2.096;2023-09-19T04:50:08;6.53;;;2.37;;
10511;SDS011;5304;48.604;2.096;2023-09-19T04:52:57;7.90;;;2.57;;
10511;SDS011;5304;48.604;2.096;2023-09-19T04:55:41;9.90;;;2.83;;
10511;SDS011;5304;48.604;2.096;2023-09-19T04:58:25;4.77;;;2.40;;
10511;SDS011;5304;48.604;2.096;2023-09-19T05:01:09;6.23;;;2.30;;
10511;SDS011;5304;48.604;2.096;2023-09-19T05:03:56;8.00;;;2.20;;
10511;SDS011;5304;48.604;2.096;2023-09-19T05:06:40;9.00;;;2.30;;
10511;SDS011;5304;48.604;2.096;2023-09-19T05:09:24;11.57;;;2.67;;
10511;SDS011;5304;48.604;2.096;2023-09-19T05:12:10;6.20;;;2.33;;
10511;SDS011;5304;48.604;2.096;2023-09-19T05:14:54;10.00;;;3.33;;
10511;SDS011;5304;48.604;2.096;2023-09-19T05:17:38;10.03;;;2.53;;
10511;SDS011;5304;48.604;2.096;2023-09-19T05:20:23;9.37;;;2.70;;
10511;SDS011;5304;48.604;2.096;2023-09-19T05:23:12;7.17;;;2.47;;
10511;SDS011;5304;48.604;2.096;2023-09-19T05:25:58;6.80;;;2.57;;
10511;SDS011;5304;48.604;2.096;2023-09-19T05:28:43;7.90;;;2.50;;
10511;SDS011;5304;48.604;2.096;2023-09-19T05:31:27;5.47;;;2.17;;
10511;SDS011;5304;48.604;2.096;2023-09-19T05:34:12;5.80;;;2.27;;
10511;SDS011;5304;48.604;2.096;2023-09-19T05:36:56;8.70;;;2.20;;
10511;SDS011;5304;48.604;2.096;2023-09-19T05:39:41;7.60;;;2.83;;
10511;SDS011;5304;48.604;2.096;2023-09-19T05:42:25;5.37;;;2.30;;
10511;SDS011;5304;48.604;2.096;2023-09-19T05:45:10;7.50;;;2.40;;
10511;SDS011;5304;48.604;2.096;2023-09-19T05:48:09;9.00;;;2.40;;
10511;SDS011;5304;48.604;2.096;2023-09-19T05:50:55;9.83;;;3.40;;
10511;SDS011;5304;48.604;2.096;2023-09-19T05:53:40;5.13;;;2.77;;
10511;SDS011;5304;48.604;2.096;2023-09-19T05:56:27;9.03;;;2.83;;
10511;SDS011;5304;48.604;2.096;2023-09-19T05:59:11;7.40;;;2.53;;
10511;SDS011;5304;48.604;2.096;2023-09-19T06:01:55;7.40;;;2.47;;
10511;SDS011;5304;48.604;2.096;2023-09-19T06:04:39;8.40;;;2.33;;
10511;SDS011;5304;48.604;2.096;2023-09-19T06:07:24;6.20;;;2.47;;
10511;SDS011;5304;48.604;2.096;2023-09-19T06:10:10;8.37;;;2.47;;
10511;SDS011;5304;48.604;2.096;2023-09-19T06:12:55;6.00;;;2.67;;
10511;SDS011;5304;48.604;2.096;2023-09-19T06:15:41;8.17;;;2.70;;
10511;SDS011;5304;48.604;2.096;2023-09-19T06:18:25;4.23;;;2.50;;
10511;SDS011;5304;48.604;2.096;2023-09-19T06:21:11;8.23;;;2.30;;
10511;SDS011;5304;48.604;2.096;2023-09-19T06:23:55;7.43;;;2.97;;
10511;SDS011;5304;48.604;2.096;2023-09-19T06:26:41;7.90;;;2.40;;
10511;SDS011;5304;48.604;2.096;2023-09-19T06:29:27;7.30;;;2.13;;
10511;SDS011;5304;48.604;2.096;2023-09-19T06:32:12;9.97;;;2.30;;
10511;SDS011;5304;48.604;2.096;2023-09-19T06:34:56;13.60;;;2.60;;
10511;SDS011;5304;48.604;2.096;2023-09-19T06:37:42;11.40;;;2.73;;
10511;SDS011;5304;48.604;2.096;2023-09-19T06:40:27;7.57;;;2.30;;
10511;SDS011;5304;48.604;2.096;2023-09-19T06:43:11;5.60;;;2.17;;
10511;SDS011;5304;48.604;2.096;2023-09-19T06:45:56;6.40;;;2.73;;
10511;SDS011;5304;48.604;2.096;2023-09-19T06:48:40;8.07;;;2.80;;
10511;SDS011;5304;48.604;2.096;2023-09-19T06:51:28;9.00;;;2.27;;
10511;SDS011;5304;48.604;2.096;2023-09-19T06:54:13;8.17;;;2.47;;
10511;SDS011;5304;48.604;2.096;2023-09-19T06:56:58;5.10;;;2.10;;
10511;SDS011;5304;48.604;2.096;2023-09-19T06:59:42;6.53;;;2.50;;
10511;SDS011;5304;48.604;2.096;2023-09-19T07:02:26;6.03;;;2.20;;
10511;SDS011;5304;48.604;2.096;2023-09-19T07:05:11;5.57;;;2.80;;
10511;SDS011;5304;48.604;2.096;2023-09-19T07:07:55;9.57;;;2.33;;
10511;SDS011;5304;48.604;2.096;2023-09-19T07:10:40;8.10;;;2.50;;
10511;SDS011;5304;48.604;2.096;2023-09-19T07:13:25;11.73;;;2.53;;
10511;SDS011;5304;48.604;2.096;2023-09-19T07:16:10;8.23;;;2.30;;
10511;SDS011;5304;48.604;2.096;2023-09-19T07:19:10;8.97;;;2.40;;
10511;SDS011;5304;48.604;2.096;2023-09-19T07:21:55;11.33;;;2.30;;
10511;SDS011;5304;48.604;2.096;2023-09-19T07:24:39;7.40;;;2.07;;
10511;SDS011;5304;48.604;2.096;2023-09-19T07:27:23;6.57;;;2.20;;
10511;SDS011;5304;48.604;2.096;2023-09-19T07:30:09;9.40;;;2.63;;
10511;SDS011;5304;48.604;2.096;2023-09-19T07:32:55;6.83;;;2.37;;
10511;SDS011;5304;48.604;2.096;2023-09-19T07:35:39;5.67;;;2.27;;
10511;SDS011;5304;48.604;2.096;2023-09-19T07:38:24;5.40;;;2.30;;
10511;SDS011;5304;48.604;2.096;2023-09-19T07:41:08;10.10;;;1.90;;
10511;SDS011;5304;48.604;2.096;2023-09-19T07:43:52;4.50;;;2.20;;
10511;SDS011;5304;48.604;2.096;2023-09-19T07:46:36;3.53;;;2.13;;
10511;SDS011;5304;48.604;2.096;2023-09-19T07:49:21;5.67;;;2.13;;
10511;SDS011;5304;48.604;2.096;2023-09-19T07:52:05;4.73;;;2.50;;
10511;SDS011;5304;48.604;2.096;2023-09-19T07:54:49;5.30;;;2.00;;
10511;SDS011;5304;48.604;2.096;2023-09-19T07:57:33;10.40;;;2.40;;
10511;SDS011;5304;48.604;2.096;2023-09-19T08:00:21;4.27;;;1.90;;
10511;SDS011;5304;48.604;2.096;2023-09-19T08:03:05;6.23;;;1.90;;
10511;SDS011;5304;48.604;2.096;2023-09-19T08:05:51;5.43;;;2.10;;
10511;SDS011;5304;48.604;2.096;2023-09-19T08:08:35;5.77;;;2.20;;
10511;SDS011;5304;48.604;2.096;2023-09-19T08:11:23;4.37;;;1.70;;
10511;SDS011;5304;48.604;2.096;2023-09-19T08:14:08;7.17;;;2.17;;
10511;SDS011;5304;48.604;2.096;2023-09-19T08:16:55;8.00;;;2.30;;
10511;SDS011;5304;48.604;2.096;2023-09-19T08:19:41;7.80;;;1.80;;
10511;SDS011;5304;48.604;2.096;2023-09-19T08:22:28;6.20;;;2.10;;
10511;SDS011;5304;48.604;2.096;2023-09-19T08:25:12;7.20;;;2.10;;
10511;SDS011;5304;48.604;2.096;2023-09-19T08:27:57;5.37;;;2.30;;
10511;SDS011;5304;48.604;2.096;2023-09-19T08:30:45;6.07;;;2.17;;
10511;SDS011;5304;48.604;2.096;2023-09-19T08:33:33;7.23;;;1.97;;
10511;SDS011;5304;48.604;2.096;2023-09-19T08:36:19;6.73;;;2.20;;
10511;SDS011;5304;48.604;2.096;2023-09-19T08:39:03;5.50;;;1.80;;
10511;SDS011;5304;48.604;2.096;2023-09-19T08:41:47;8.10;;;2.27;;
10511;SDS011;5304;48.604;2.096;2023-09-19T08:44:32;6.87;;;1.73;;
10511;SDS011;5304;48.604;2.096;2023-09-19T08:47:34;5.83;;;2.00;;
10511;SDS011;5304;48.604;2.096;2023-09-19T08:50:29;4.20;;;1.77;;
10511;SDS011;5304;48.604;2.096;2023-09-19T08:53:16;3.20;;;1.40;;
10511;SDS011;5304;48.604;2.096;2023-09-19T08:56:12;3.47;;;1.60;;
10511;SDS011;5304;48.604;2.096;2023-09-19T08:58:57;6.15;;;1.70;;
10511;SDS011;5304;48.604;2.096;2023-09-19T09:01:46;5.07;;;1.73;;
10511;SDS011;5304;48.604;2.096;2023-09-19T09:04:30;5.38;;;1.80;;
10511;SDS011;5304;48.604;2.096;2023-09-19T09:07:17;6.40;;;1.90;;
10511;SDS011;5304;48.604;2.096;2023-09-19T09:10:03;4.15;;;1.92;;
10511;SDS011;5304;48.604;2.096;2023-09-19T09:12:54;3.38;;;1.70;;
10511;SDS011;5304;48.604;2.096;2023-09-19T09:15:41;6.95;;;2.00;;
10511;SDS011;5304;48.604;2.096;2023-09-19T09:18:28;4.03;;;1.75;;
10511;SDS011;5304;48.604;2.096;2023-09-19T09:21:16;6.18;;;1.70;;
10511;SDS011;5304;48.604;2.096;2023-09-19T09:24:17;5.43;;;1.80;;
10511;SDS011;5304;48.604;2.096;2023-09-19T09:27:12;4.47;;;1.70;;
10511;SDS011;5304;48.604;2.096;2023-09-19T09:29:57;7.60;;;1.80;;
10511;SDS011;5304;48.604;2.096;2023-09-19T09:32:41;4.88;;;1.70;;
10511;SDS011;5304;48.604;2.096;2023-09-19T09:35:26;5.72;;;1.67;;
10511;SDS011;5304;48.604;2.096;2023-09-19T09:38:10;4.78;;;1.80;;
10511;SDS011;5304;48.604;2.096;2023-09-19T09:40:55;2.70;;;1.40;;
10511;SDS011;5304;48.604;2.096;2023-09-19T09:43:50;5.13;;;1.67;;
10511;SDS011;5304;48.604;2.096;2023-09-19T09:46:35;6.80;;;1.65;;
10511;SDS011;5304;48.604;2.096;2023-09-19T09:49:37;6.50;;;1.60;;
10511;SDS011;5304;48.604;2.096;2023-09-19T09:52:22;5.53;;;1.67;;
10511;SDS011;5304;48.604;2.096;2023-09-19T09:55:08;3.03;;;1.42;;
10511;SDS011;5304;48.604;2.096;2023-09-19T09:58:15;4.20;;;1.45;;
10511;SDS011;5304;48.604;2.096;2023-09-19T10:01:07;1.85;;;1.20;;
10511;SDS011;5304;48.604;2.096;2023-09-19T10:03:58;4.25;;;1.42;;
10511;SDS011;5304;48.604;2.096;2023-09-19T10:06:44;2.92;;;1.50;;
10511;SDS011;5304;48.604;2.096;2023-09-19T10:09:46;6.00;;;1.58;;
10511;SDS011;5304;48.604;2.096;2023-09-19T10:12:36;7.50;;;1.50;;
10511;SDS011;5304;48.604;2.096;2023-09-19T10:15:25;5.85;;;1.73;;
10511;SDS011;5304;48.604;2.096;2023-09-19T10:18:14;7.25;;;1.40;;
10511;SDS011;5304;48.604;2.096;2023-09-19T10:21:01;8.75;;;1.55;;
10511;SDS011;5304;48.604;2.096;2023-09-19T10:23:48;3.42;;;1.52;;
10511;SDS011;5304;48.604;2.096;2023-09-19T10:26:36;3.22;;;1.20;;
10511;SDS011;5304;48.604;2.096;2023-09-19T10:29:21;3.13;;;1.35;;
10511;SDS011;5304;48.604;2.096;2023-09-19T10:32:05;2.58;;;1.30;;
10511;SDS011;5304;48.604;2.096;2023-09-19T10:34:52;3.70;;;1.70;;
10511;SDS011;5304;48.604;2.096;2023-09-19T10:37:39;4.85;;;1.48;;
10511;SDS011;5304;48.604;2.096;2023-09-19T10:40:24;4.18;;;1.20;;
10511;SDS011;5304;48.604;2.096;2023-09-19T10:43:18;3.45;;;1.50;;
10511;SDS011;5304;48.604;2.096;2023-09-19T10:46:07;3.65;;;1.55;;
10511;SDS011;5304;48.604;2.096;2023-09-19T10:48:58;7.07;;;1.65;;
10511;SDS011;5304;48.604;2.096;2023-09-19T10:51:44;6.88;;;1.83;;
10511;SDS011;5304;48.604;2.096;2023-09-19T10:54:33;2.53;;;1.48;;
10511;SDS011;5304;48.604;2.096;2023-09-19T10:57:24;2.55;;;1.40;;
10511;SDS011;5304;48.604;2.096;2023-09-19T11:00:11;6.07;;;1.48;;
10511;SDS011;5304;48.604;2.096;2023-09-19T11:06:08;3.67;;;1.48;;
10511;SDS011;5304;48.604;2.096;2023-09-19T11:08:58;4.55;;;1.85;;
10511;SDS011;5304;48.604;2.096;2023-09-19T11:11:55;3.47;;;2.00;;
10511;SDS011;5304;48.604;2.096;2023-09-19T11:14:41;2.92;;;1.67;;
10511;SDS011;5304;48.604;2.096;2023-09-19T11:17:38;3.42;;;1.50;;
10511;SDS011;5304;48.604;2.096;2023-09-19T11:20:28;4.70;;;1.73;;
10511;SDS011;5304;48.604;2.096;2023-09-19T11:23:26;4.85;;;1.55;;
10511;SDS011;5304;48.604;2.096;2023-09-19T11:26:32;7.57;;;1.70;;
10511;SDS011;5304;48.604;2.096;2023-09-19T11:29:31;3.33;;;1.40;;
10511;SDS011;5304;48.604;2.096;2023-09-19T11:32:15;4.45;;;1.60;;
10511;SDS011;5304;48.604;2.096;2023-09-19T11:35:06;3.13;;;1.40;;
10511;SDS011;5304;48.604;2.096;2023-09-19T11:40:36;4.80;;;1.90;;
10511;SDS011;5304;48.604;2.096;2023-09-19T11:43:30;2.67;;;1.42;;
10511;SDS011;5304;48.604;2.096;2023-09-19T11:46:17;2.00;;;1.48;;
10511;SDS011;5304;48.604;2.096;2023-09-19T11:49:08;3.88;;;1.63;;
10511;SDS011;5304;48.604;2.096;2023-09-19T11:52:03;3.20;;;1.52;;
10511;SDS011;5304;48.604;2.096;2023-09-19T11:54:56;6.25;;;2.10;;
10511;SDS011;5304;48.604;2.096;2023-09-19T11:57:41;3.28;;;1.70;;
10511;SDS011;5304;48.604;2.096;2023-09-19T12:00:25;5.38;;;1.73;;
10511;SDS011;5304;48.604;2.096;2023-09-19T12:03:11;5.47;;;1.65;;
10511;SDS011;5304;48.604;2.096;2023-09-19T12:05:58;5.03;;;1.77;;
10511;SDS011;5304;48.604;2.096;2023-09-19T12:08:43;3.58;;;1.67;;
10511;SDS011;5304;48.604;2.096;2023-09-19T12:11:30;6.22;;;1.67;;
10511;SDS011;5304;48.604;2.096;2023-09-19T12:14:23;4.78;;;2.00;;
10511;SDS011;5304;48.604;2.096;2023-09-19T12:17:11;4.80;;;1.85;;
10511;SDS011;5304;48.604;2.096;2023-09-19T12:19:56;4.07;;;1.55;;
10511;SDS011;5304;48.604;2.096;2023-09-19T12:22:44;5.53;;;1.77;;
10511;SDS011;5304;48.604;2.096;2023-09-19T12:25:41;4.40;;;1.90;;
10511;SDS011;5304;48.604;2.096;2023-09-19T12:28:30;4.68;;;1.90;;
10511;SDS011;5304;48.604;2.096;2023-09-19T12:31:14;3.33;;;1.75;;
10511;SDS011;5304;48.604;2.096;2023-09-19T12:34:02;6.70;;;2.05;;
10511;SDS011;5304;48.604;2.096;2023-09-19T12:36:46;3.30;;;1.80;;
10511;SDS011;5304;48.604;2.096;2023-09-19T12:39:31;5.22;;;1.60;;
10511;SDS011;5304;48.604;2.096;2023-09-19T12:42:15;3.40;;;1.63;;
10511;SDS011;5304;48.604;2.096;2023-09-19T12:45:03;6.53;;;1.60;;
10511;SDS011;5304;48.604;2.096;2023-09-19T12:53:57;4.78;;;1.80;;
10511;SDS011;5304;48.604;2.096;2023-09-19T12:56:45;4.38;;;1.60;;
10511;SDS011;5304;48.604;2.096;2023-09-19T12:59:32;4.63;;;1.60;;
10511;SDS011;5304;48.604;2.096;2023-09-19T13:02:19;4.70;;;1.73;;
10511;SDS011;5304;48.604;2.096;2023-09-19T13:05:07;4.60;;;1.40;;
10511;SDS011;5304;48.604;2.096;2023-09-19T13:07:53;2.90;;;1.70;;
10511;SDS011;5304;48.604;2.096;2023-09-19T13:10:59;3.83;;;1.55;;
10511;SDS011;5304;48.604;2.096;2023-09-19T13:13:45;3.25;;;1.42;;
10511;SDS011;5304;48.604;2.096;2023-09-19T13:19:50;3.47;;;1.45;;
10511;SDS011;5304;48.604;2.096;2023-09-19T13:22:41;5.22;;;1.73;;
10511;SDS011;5304;48.604;2.096;2023-09-19T13:25:28;3.35;;;1.30;;
10511;SDS011;5304;48.604;2.096;2023-09-19T13:28:13;2.55;;;1.50;;
10511;SDS011;5304;48.604;2.096;2023-09-19T13:30:58;4.75;;;1.70;;
10511;SDS011;5304;48.604;2.096;2023-09-19T13:33:42;4.85;;;1.23;;
10511;SDS011;5304;48.604;2.096;2023-09-19T13:36:30;7.68;;;2.35;;
10511;SDS011;5304;48.604;2.096;2023-09-19T13:39:15;4.93;;;2.10;;
10511;SDS011;5304;48.604;2.096;2023-09-19T13:41:59;3.78;;;1.60;;
10511;SDS011;5304;48.604;2.096;2023-09-19T13:44:44;3.38;;;1.10;;
10511;SDS011;5304;48.604;2.096;2023-09-19T13:47:28;2.60;;;1.33;;
10511;SDS011;5304;48.604;2.096;2023-09-19T13:50:13;4.47;;;1.65;;
10511;SDS011;5304;48.604;2.096;2023-09-19T13:52:58;3.58;;;1.58;;
10511;SDS011;5304;48.604;2.096;2023-09-19T13:55:44;4.88;;;1.70;;
10511;SDS011;5304;48.604;2.096;2023-09-19T13:58:28;3.63;;;1.52;;
10511;SDS011;5304;48.604;2.096;2023-09-19T14:01:13;5.38;;;1.40;;
10511;SDS011;5304;48.604;2.096;2023-09-19T14:03:58;3.65;;;1.50;;
10511;SDS011;5304;48.604;2.096;2023-09-19T14:06:42;6.38;;;1.70;;
10511;SDS011;5304;48.604;2.096;2023-09-19T14:09:27;3.58;;;1.50;;
10511;SDS011;5304;48.604;2.096;2023-09-19T14:12:11;3.17;;;1.60;;
10511;SDS011;5304;48.604;2.096;2023-09-19T14:14:56;5.80;;;1.70;;
10511;SDS011;5304;48.604;2.096;2023-09-19T14:17:40;3.08;;;1.40;;
10511;SDS011;5304;48.604;2.096;2023-09-19T14:20:26;2.55;;;1.58;;
10511;SDS011;5304;48.604;2.096;2023-09-19T14:23:11;2.50;;;1.33;;
10511;SDS011;5304;48.604;2.096;2023-09-19T14:25:55;4.57;;;1.40;;
10511;SDS011;5304;48.604;2.096;2023-09-19T14:28:40;2.88;;;1.23;;
10511;SDS011;5304;48.604;2.096;2023-09-19T14:31:24;4.07;;;1.20;;
10511;SDS011;5304;48.604;2.096;2023-09-19T14:34:09;5.60;;;1.50;;
10511;SDS011;5304;48.604;2.096;2023-09-19T14:36:54;6.88;;;1.85;;
10511;SDS011;5304;48.604;2.096;2023-09-19T14:39:38;3.60;;;1.42;;
10511;SDS011;5304;48.604;2.096;2023-09-19T14:42:23;5.68;;;1.30;;
10511;SDS011;5304;48.604;2.096;2023-09-19T14:45:08;2.65;;;1.60;;
10511;SDS011;5304;48.604;2.096;2023-09-19T14:47:52;3.92;;;1.40;;
10511;SDS011;5304;48.604;2.096;2023-09-19T14:50:38;3.65;;;1.60;;
10511;SDS011;5304;48.604;2.096;2023-09-19T14:53:22;3.90;;;1.67;;
10511;SDS011;5304;48.604;2.096;2023-09-19T14:56:09;3.67;;;1.77;;
10511;SDS011;5304;48.604;2.096;2023-09-19T14:58:54;3.47;;;1.55;;
10511;SDS011;5304;48.604;2.096;2023-09-19T15:01:38;2.20;;;1.23;;
10511;SDS011;5304;48.604;2.096;2023-09-19T15:04:23;4.88;;;1.52;;
10511;SDS011;5304;48.604;2.096;2023-09-19T15:07:08;4.80;;;2.08;;
10511;SDS011;5304;48.604;2.096;2023-09-19T15:09:52;4.10;;;1.75;;
10511;SDS011;5304;48.604;2.096;2023-09-19T15:12:36;5.32;;;1.80;;
10511;SDS011;5304;48.604;2.096;2023-09-19T15:15:21;4.40;;;1.63;;
10511;SDS011;5304;48.604;2.096;2023-09-19T15:18:05;4.70;;;1.67;;
10511;SDS011;5304;48.604;2.096;2023-09-19T15:20:51;6.30;;;1.60;;
10511;SDS011;5304;48.604;2.096;2023-09-19T15:23:36;5.88;;;1.50;;
10511;SDS011;5304;48.604;2.096;2023-09-19T15:26:21;3.53;;;1.63;;
10511;SDS011;5304;48.604;2.096;2023-09-19T15:29:06;3.80;;;1.50;;
10511;SDS011;5304;48.604;2.096;2023-09-19T15:31:51;4.57;;;1.73;;
10511;SDS011;5304;48.604;2.096;2023-09-19T15:34:35;4.13;;;1.40;;
10511;SDS011;5304;48.604;2.096;2023-09-19T15:37:20;4.32;;;1.55;;
10511;SDS011;5304;48.604;2.096;2023-09-19T15:40:04;8.57;;;1.60;;
10511;SDS011;5304;48.604;2.096;2023-09-19T15:42:52;6.28;;;1.50;;
10511;SDS011;5304;48.604;2.096;2023-09-19T15:45:37;4.25;;;1.30;;
10511;SDS011;5304;48.604;2.096;2023-09-19T15:48:22;4.00;;;1.65;;
10511;SDS011;5304;48.604;2.096;2023-09-19T15:51:06;4.63;;;1.50;;
10511;SDS011;5304;48.604;2.096;2023-09-19T15:53:51;6.88;;;1.80;;
10511;SDS011;5304;48.604;2.096;2023-09-19T15:56:37;2.90;;;1.50;;
10511;SDS011;5304;48.604;2.096;2023-09-19T15:59:24;4.30;;;1.58;;
10511;SDS011;5304;48.604;2.096;2023-09-19T16:02:08;4.07;;;1.70;;
10511;SDS011;5304;48.604;2.096;2023-09-19T16:04:54;4.65;;;1.90;;
10511;SDS011;5304;48.604;2.096;2023-09-19T16:07:38;7.03;;;1.75;;
10511;SDS011;5304;48.604;2.096;2023-09-19T16:10:23;8.52;;;1.83;;
10511;SDS011;5304;48.604;2.096;2023-09-19T16:13:07;4.75;;;1.73;;
10511;SDS011;5304;48.604;2.096;2023-09-19T16:15:51;3.88;;;1.58;;
10511;SDS011;5304;48.604;2.096;2023-09-19T16:18:36;2.40;;;1.90;;
10511;SDS011;5304;48.604;2.096;2023-09-19T16:21:20;4.88;;;1.77;;
10511;SDS011;5304;48.604;2.096;2023-09-19T16:24:04;4.90;;;1.65;;
10511;SDS011;5304;48.604;2.096;2023-09-19T16:26:49;3.28;;;1.90;;
10511;SDS011;5304;48.604;2.096;2023-09-19T16:29:33;4.38;;;2.10;;
10511;SDS011;5304;48.604;2.096;2023-09-19T16:32:18;3.95;;;1.70;;
10511;SDS011;5304;48.604;2.096;2023-09-19T16:35:04;5.78;;;2.10;;
10511;SDS011;5304;48.604;2.096;2023-09-19T16:37:48;6.75;;;1.92;;
10511;SDS011;5304;48.604;2.096;2023-09-19T16:40:32;4.43;;;1.67;;
10511;SDS011;5304;48.604;2.096;2023-09-19T16:43:17;7.15;;;1.98;;
10511;SDS011;5304;48.604;2.096;2023-09-19T16:46:02;4.90;;;1.85;;
10511;SDS011;5304;48.604;2.096;2023-09-19T16:48:49;4.07;;;1.73;;
10511;SDS011;5304;48.604;2.096;2023-09-19T16:51:33;5.60;;;1.50;;
10511;SDS011;5304;48.604;2.096;2023-09-19T16:54:17;7.25;;;1.92;;
10511;SDS011;5304;48.604;2.096;2023-09-19T16:57:02;4.68;;;2.10;;
10511;SDS011;5304;48.604;2.096;2023-09-19T16:59:46;5.40;;;1.80;;
10511;SDS011;5304;48.604;2.096;2023-09-19T17:02:30;7.15;;;1.90;;
10511;SDS011;5304;48.604;2.096;2023-09-19T17:05:15;3.42;;;1.80;;
10511;SDS011;5304;48.604;2.096;2023-09-19T17:07:59;4.05;;;1.88;;
10511;SDS011;5304;48.604;2.096;2023-09-19T17:10:45;6.32;;;2.03;;
10511;SDS011;5304;48.604;2.096;2023-09-19T17:13:30;4.78;;;1.75;;
10511;SDS011;5304;48.604;2.096;2023-09-19T17:16:16;6.90;;;1.98;;
10511;SDS011;5304;48.604;2.096;2023-09-19T17:19:04;5.50;;;1.80;;
10511;SDS011;5304;48.604;2.096;2023-09-19T17:21:49;4.28;;;1.88;;
10511;SDS011;5304;48.604;2.096;2023-09-19T17:24:33;4.97;;;1.83;;
10511;SDS011;5304;48.604;2.096;2023-09-19T17:27:18;5.03;;;1.90;;
10511;SDS011;5304;48.604;2.096;2023-09-19T17:30:02;5.38;;;1.98;;
10511;SDS011;5304;48.604;2.096;2023-09-19T17:32:48;5.30;;;1.63;;
10511;SDS011;5304;48.604;2.096;2023-09-19T17:35:33;3.67;;;1.90;;
10511;SDS011;5304;48.604;2.096;2023-09-19T17:38:17;3.85;;;1.60;;
10511;SDS011;5304;48.604;2.096;2023-09-19T17:41:02;5.20;;;1.90;;
10511;SDS011;5304;48.604;2.096;2023-09-19T17:43:54;5.68;;;2.15;;
10511;SDS011;5304;48.604;2.096;2023-09-19T17:46:40;6.35;;;1.98;;
10511;SDS011;5304;48.604;2.096;2023-09-19T17:49:24;5.13;;;1.98;;
10511;SDS011;5304;48.604;2.096;2023-09-19T17:52:09;5.50;;;2.08;;
10511;SDS011;5304;48.604;2.096;2023-09-19T17:54:55;3.70;;;1.80;;
10511;SDS011;5304;48.604;2.096;2023-09-19T17:57:39;6.28;;;1.90;;
10511;SDS011;5304;48.604;2.096;2023-09-19T18:00:25;7.50;;;2.30;;
10511;SDS011;5304;48.604;2.096;2023-09-19T18:03:09;7.60;;;2.10;;
10511;SDS011;5304;48.604;2.096;2023-09-19T18:05:53;4.00;;;2.10;;
10511;SDS011;5304;48.604;2.096;2023-09-19T18:08:38;4.20;;;1.80;;
10511;SDS011;5304;48.604;2.096;2023-09-19T18:11:23;6.25;;;1.70;;
10511;SDS011;5304;48.604;2.096;2023-09-19T18:14:09;4.07;;;2.08;;
10511;SDS011;5304;48.604;2.096;2023-09-19T18:16:53;4.15;;;1.83;;
10511;SDS011;5304;48.604;2.096;2023-09-19T18:19:41;3.10;;;1.70;;
10511;SDS011;5304;48.604;2.096;2023-09-19T18:22:25;5.25;;;2.00;;
10511;SDS011;5304;48.604;2.096;2023-09-19T18:25:11;2.35;;;1.75;;
10511;SDS011;5304;48.604;2.096;2023-09-19T18:27:56;3.72;;;1.80;;
10511;SDS011;5304;48.604;2.096;2023-09-19T18:30:41;2.15;;;1.90;;
10511;SDS011;5304;48.604;2.096;2023-09-19T18:33:25;6.55;;;2.42;;
10511;SDS011;5304;48.604;2.096;2023-09-19T18:36:13;4.88;;;2.40;;
10511;SDS011;5304;48.604;2.096;2023-09-19T18:38:57;4.68;;;1.88;;
10511;SDS011;5304;48.604;2.096;2023-09-19T18:41:43;3.33;;;1.73;;
10511;SDS011;5304;48.604;2.096;2023-09-19T18:44:30;3.70;;;1.98;;
10511;SDS011;5304;48.604;2.096;2023-09-19T18:47:14;5.20;;;2.00;;
10511;SDS011;5304;48.604;2.096;2023-09-19T18:49:58;4.53;;;1.80;;
10511;SDS011;5304;48.604;2.096;2023-09-19T18:52:43;5.47;;;2.33;;
10511;SDS011;5304;48.604;2.096;2023-09-19T18:55:27;5.23;;;1.80;;
10511;SDS011;5304;48.604;2.096;2023-09-19T18:58:11;7.50;;;2.00;;
10511;SDS011;5304;48.604;2.096;2023-09-19T19:01:05;2.67;;;1.70;;
10511;SDS011;5304;48.604;2.096;2023-09-19T19:03:54;4.07;;;2.13;;
10511;SDS011;5304;48.604;2.096;2023-09-19T19:06:38;5.50;;;2.13;;
10511;SDS011;5304;48.604;2.096;2023-09-19T19:09:22;2.60;;;1.50;;
10511;SDS011;5304;48.604;2.096;2023-09-19T19:12:06;5.07;;;1.90;;
10511;SDS011;5304;48.604;2.096;2023-09-19T19:14:52;4.27;;;1.80;;
10511;SDS011;5304;48.604;2.096;2023-09-19T19:17:37;3.53;;;2.00;;
10511;SDS011;5304;48.604;2.096;2023-09-19T19:20:21;3.27;;;1.47;;
10511;SDS011;5304;48.604;2.096;2023-09-19T19:23:08;3.00;;;1.50;;
10511;SDS011;5304;48.604;2.096;2023-09-19T19:25:53;5.47;;;1.53;;
10511;SDS011;5304;48.604;2.096;2023-09-19T19:28:40;3.08;;;1.60;;
10511;SDS011;5304;48.604;2.096;2023-09-19T19:31:25;3.83;;;1.70;;
10511;SDS011;5304;48.604;2.096;2023-09-19T19:34:11;3.23;;;1.80;;
10511;SDS011;5304;48.604;2.096;2023-09-19T19:36:55;3.30;;;1.47;;
10511;SDS011;5304;48.604;2.096;2023-09-19T19:39:39;5.90;;;1.70;;
10511;SDS011;5304;48.604;2.096;2023-09-19T19:42:24;2.53;;;1.35;;
10511;SDS011;5304;48.604;2.096;2023-09-19T19:45:08;3.45;;;1.83;;
10511;SDS011;5304;48.604;2.096;2023-09-19T19:47:52;5.72;;;1.80;;
10511;SDS011;5304;48.604;2.096;2023-09-19T19:50:37;4.40;;;1.60;;
10511;SDS011;5304;48.604;2.096;2023-09-19T19:53:25;4.33;;;1.43;;
10511;SDS011;5304;48.604;2.096;2023-09-19T19:56:09;4.73;;;1.90;;
10511;SDS011;5304;48.604;2.096;2023-09-19T19:58:54;2.42;;;1.75;;
10511;SDS011;5304;48.604;2.096;2023-09-19T20:01:38;4.10;;;1.75;;
10511;SDS011;5304;48.604;2.096;2023-09-19T20:04:22;5.43;;;1.63;;
10511;SDS011;5304;48.604;2.096;2023-09-19T20:07:07;2.87;;;1.83;;
10511;SDS011;5304;48.604;2.096;2023-09-19T20:09:51;5.10;;;1.60;;
10511;SDS011;5304;48.604;2.096;2023-09-19T20:12:36;3.00;;;1.40;;
10511;SDS011;5304;48.604;2.096;2023-09-19T20:15:21;2.03;;;1.57;;
